Time;durP1;ratioP1;P1;durP2;ratioP2;P2;SDS_P1;SDS_P2;PMS_P1;PMS_P2;Temp;Humidity;BMP_temperature;BMP_pressure;BME280_temperature;BME280_humidity;BME280_pressure;Samples;Min_cycle;Max_cycle;Signal;HPM_P1;HPM_P2
2023/12/16 00:01:22;;;;;;;;;;;;;;;;;;4213815;28;19929;-61
2023/12/16 00:03:28;;;;;;;;;;;;;;;;;;4196580;28;19956;-61
2023/12/16 00:05:31;;;;;;;;;;;;;;;;;;4198255;28;19924;-61
2023/12/16 00:07:33;;;;;;;;;;;;;;;;;;4198448;28;19929;-62
2023/12/16 00:09:36;;;;;;;;;;;;;;;;;;4212323;28;19973;-61
2023/12/16 00:11:39;;;;;;;;;;;;;;;;;;4215065;28;19924;-61
2023/12/16 00:13:42;;;;;;;;;;;;;;;;;;4214683;28;19924;-62
2023/12/16 00:15:45;;;;;;;;;;;;;;;;;;4214975;28;19932;-61
2023/12/16 00:17:48;;;;;;;;;;;;;;;;;;4215100;28;20281;-61
2023/12/16 00:19:51;;;;;;;;;;;;;;;;;;4208655;28;20363;-61
2023/12/16 00:21:54;;;;;;;;;;;;;;;;;;4214684;28;19924;-61
2023/12/16 00:23:57;;;;;;;;;;;;;;;;;;4215036;28;19935;-61
2023/12/16 00:25:59;;;;;;;;;;;;;;;;;;4215091;28;20217;-61
2023/12/16 00:28:02;;;;;;;;;;;;;;;;;;4212851;28;19934;-62
2023/12/16 00:30:05;;;;;;;;;;;;;;;;;;4197767;28;20041;-61
2023/12/16 00:32:08;;;;;;;;;;;;;;;;;;4198194;28;20376;-61
2023/12/16 00:34:11;;;;;;;;;;;;;;;;;;4198182;28;19934;-61
2023/12/16 00:36:14;;;;;;;;;;;;;;;;;;4203735;28;20424;-61
2023/12/16 00:38:16;;;;;;;;;;;;;;;;;;4214969;28;19924;-61
2023/12/16 00:40:19;;;;;;;;;;;;;;;;;;4214684;28;19931;-59
2023/12/16 00:42:22;;;;;;;;;;;;;;;;;;4207633;28;20296;-59
2023/12/16 00:44:25;;;;;;;;;;;;;;;;;;4198060;28;19963;-59
2023/12/16 00:46:28;;;;;;;;;;;;;;;;;;4197879;28;19924;-59
2023/12/16 00:48:31;;;;;;;;;;;;;;;;;;4197902;28;19956;-59
2023/12/16 00:50:38;;;;;;;;;;;;;;;;;;4197624;28;20011;-59
2023/12/16 00:52:42;;;;;;;;;;;;;;;;;;4196684;28;20195;-59
2023/12/16 00:54:44;;;;;;;;;;;;;;;;;;4197892;28;20296;-59
2023/12/16 00:56:47;;;;;;;;;;;;;;;;;;4197882;28;19970;-59
2023/12/16 00:58:50;;;;;;;;;;;;;;;;;;4197922;28;19933;-59
2023/12/16 01:00:53;;;;;;;;;;;;;;;;;;4197716;28;20043;-59
2023/12/16 01:02:58;;;;;;;;;;;;;;;;;;4207335;28;19924;-59
2023/12/16 01:05:01;;;;;;;;;;;;;;;;;;4230531;28;20322;-59
2023/12/16 01:07:04;;;;;;;;;;;;;;;;;;4231249;28;19927;-59
2023/12/16 01:09:07;;;;;;;;;;;;;;;;;;4231260;28;19931;-59
2023/12/16 01:11:10;;;;;;;;;;;;;;;;;;4231339;28;19924;-59
2023/12/16 01:13:12;;;;;;;;;;;;;;;;;;4231181;28;20264;-59
2023/12/16 01:15:15;;;;;;;;;;;;;;;;;;4231279;28;19931;-59
2023/12/16 01:17:18;;;;;;;;;;;;;;;;;;4231185;28;20318;-59
2023/12/16 01:19:21;;;;;;;;;;;;;;;;;;4231229;28;20371;-59
2023/12/16 01:21:24;;;;;;;;;;;;;;;;;;4231183;28;19931;-59
2023/12/16 01:23:27;;;;;;;;;;;;;;;;;;4213325;28;19935;-60
2023/12/16 01:25:29;;;;;;;;;;;;;;;;;;4201160;28;19978;-59
2023/12/16 01:27:32;;;;;;;;;;;;;;;;;;4214464;28;19924;-59
2023/12/16 01:29:35;;;;;;;;;;;;;;;;;;4214405;28;19973;-59
2023/12/16 01:31:38;;;;;;;;;;;;;;;;;;4214398;28;19928;-59
2023/12/16 01:33:41;;;;;;;;;;;;;;;;;;4211884;28;19946;-59
2023/12/16 01:35:44;;;;;;;;;;;;;;;;;;4231057;28;20325;-59
2023/12/16 01:37:46;;;;;;;;;;;;;;;;;;4231205;28;19928;-59
2023/12/16 01:39:49;;;;;;;;;;;;;;;;;;4231243;28;20436;-59
2023/12/16 01:41:51;;;;;;;;;;;;;;;;;;4228478;28;19928;-59
2023/12/16 01:43:52;;;;;;;;;;;;;;;;;;4217149;28;19928;-59
2023/12/16 01:45:54;;;;;;;;;;;;;;;;;;4217492;28;19981;-58
2023/12/16 01:47:55;;;;;;;;;;;;;;;;;;4217138;28;19932;-59
2023/12/16 01:49:57;;;;;;;;;;;;;;;;;;4217272;28;19928;-61
2023/12/16 01:51:58;;;;;;;;;;;;;;;;;;4217039;28;19931;-59
2023/12/16 01:54:00;;;;;;;;;;;;;;;;;;4216457;28;19928;-59
2023/12/16 01:56:01;;;;;;;;;;;;;;;;;;4215839;28;19928;-59
2023/12/16 01:58:04;;;;;;;;;;;;;;;;;;4215429;28;20387;-58
2023/12/16 02:00:10;;;;;;;;;;;;;;;;;;4231093;28;19965;-59
2023/12/16 02:02:11;;;;;;;;;;;;;;;;;;4217670;22;19937;-53
2023/12/16 02:04:13;;;;;;;;;;;;;;;;;;4182562;28;19935;-53
2023/12/16 02:06:15;;;;;;;;;;;;;;;;;;4164449;28;20335;-54
2023/12/16 02:08:16;;;;;;;;;;;;;;;;;;4185317;28;19924;-53
2023/12/16 02:10:18;;;;;;;;;;;;;;;;;;4181137;28;19928;-54
2023/12/16 02:12:20;;;;;;;;;;;;;;;;;;4195743;28;19924;-54
2023/12/16 02:14:21;;;;;;;;;;;;;;;;;;4183501;28;20391;-53
2023/12/16 02:16:23;;;;;;;;;;;;;;;;;;4183391;28;19924;-54
2023/12/16 02:18:24;;;;;;;;;;;;;;;;;;4182029;28;19931;-54
2023/12/16 02:20:26;;;;;;;;;;;;;;;;;;4165670;28;20024;-54
2023/12/16 02:22:28;;;;;;;;;;;;;;;;;;4183494;28;19924;-53
2023/12/16 02:24:31;;;;;;;;;;;;;;;;;;4183342;28;20295;-53
2023/12/16 02:26:33;;;;;;;;;;;;;;;;;;4183562;28;19931;-53
2023/12/16 02:28:34;;;;;;;;;;;;;;;;;;4183453;28;19949;-53
2023/12/16 02:30:36;;;;;;;;;;;;;;;;;;4183675;28;19931;-54
2023/12/16 02:32:38;;;;;;;;;;;;;;;;;;4183234;28;20376;-54
2023/12/16 02:34:40;;;;;;;;;;;;;;;;;;4183452;28;20019;-54
2023/12/16 02:36:42;;;;;;;;;;;;;;;;;;4183187;28;19975;-53
2023/12/16 02:38:43;;;;;;;;;;;;;;;;;;4182924;28;20442;-54
2023/12/16 02:40:45;;;;;;;;;;;;;;;;;;4183028;28;19925;-53
2023/12/16 02:42:47;;;;;;;;;;;;;;;;;;4180159;28;19978;-54
2023/12/16 02:44:48;;;;;;;;;;;;;;;;;;4183089;28;19924;-55
2023/12/16 02:46:50;;;;;;;;;;;;;;;;;;4165242;28;20301;-55
2023/12/16 02:48:51;;;;;;;;;;;;;;;;;;4165415;28;19925;-54
2023/12/16 02:50:53;;;;;;;;;;;;;;;;;;4183057;28;19931;-53
2023/12/16 02:52:54;;;;;;;;;;;;;;;;;;4193490;28;20737;-54
2023/12/16 02:54:56;;;;;;;;;;;;;;;;;;4197827;28;19929;-54
2023/12/16 02:56:57;;;;;;;;;;;;;;;;;;4199371;28;20365;-54
2023/12/16 02:58:59;;;;;;;;;;;;;;;;;;4181705;28;19987;-54
2023/12/16 03:01:00;;;;;;;;;;;;;;;;;;4199449;28;19932;-55
2023/12/16 03:03:02;;;;;;;;;;;;;;;;;;4199130;28;19928;-54
2023/12/16 03:05:06;;;;;;;;;;;;;;;;;;4199312;28;19925;-54
2023/12/16 03:07:08;;;;;;;;;;;;;;;;;;4199474;28;20447;-54
2023/12/16 03:09:09;;;;;;;;;;;;;;;;;;4180523;28;19925;-54
2023/12/16 03:11:11;;;;;;;;;;;;;;;;;;4166558;28;19929;-57
2023/12/16 03:13:12;;;;;;;;;;;;;;;;;;4148549;28;19976;-56
2023/12/16 03:15:14;;;;;;;;;;;;;;;;;;4166323;28;20419;-55
2023/12/16 03:17:16;;;;;;;;;;;;;;;;;;4172116;28;19928;-57
2023/12/16 03:19:17;;;;;;;;;;;;;;;;;;4165273;28;20311;-56
2023/12/16 03:21:19;;;;;;;;;;;;;;;;;;4182587;28;20008;-56
2023/12/16 03:23:20;;;;;;;;;;;;;;;;;;4182846;28;19994;-56
2023/12/16 03:25:25;;;;;;;;;;;;;;;;;;4182741;28;19932;-56
2023/12/16 03:27:27;;;;;;;;;;;;;;;;;;4182503;28;20388;-57
2023/12/16 03:29:28;;;;;;;;;;;;;;;;;;4182639;28;19929;-55
2023/12/16 03:31:30;;;;;;;;;;;;;;;;;;4182533;28;20028;-56
2023/12/16 03:33:31;;;;;;;;;;;;;;;;;;4164875;28;20012;-57
2023/12/16 03:35:33;;;;;;;;;;;;;;;;;;4164561;28;19975;-57
2023/12/16 03:37:35;;;;;;;;;;;;;;;;;;4182683;28;19924;-55
2023/12/16 03:39:37;;;;;;;;;;;;;;;;;;4182400;28;19971;-56
2023/12/16 03:41:38;;;;;;;;;;;;;;;;;;4182226;28;19931;-57
2023/12/16 03:43:40;;;;;;;;;;;;;;;;;;4182326;28;20008;-57
2023/12/16 03:45:41;;;;;;;;;;;;;;;;;;4182127;28;19951;-56
2023/12/16 03:47:43;;;;;;;;;;;;;;;;;;4182248;28;20366;-57
2023/12/16 03:49:44;;;;;;;;;;;;;;;;;;4182064;28;20304;-56
2023/12/16 03:51:47;;;;;;;;;;;;;;;;;;4183370;28;19924;-57
2023/12/16 03:53:49;;;;;;;;;;;;;;;;;;4198638;28;20485;-56
2023/12/16 03:55:50;;;;;;;;;;;;;;;;;;4198654;28;20334;-57
2023/12/16 03:57:52;;;;;;;;;;;;;;;;;;4180824;28;19940;-56
2023/12/16 03:59:53;;;;;;;;;;;;;;;;;;4198734;28;19932;-57
2023/12/16 04:01:55;;;;;;;;;;;;;;;;;;4198120;28;19929;-56
2023/12/16 04:03:56;;;;;;;;;;;;;;;;;;4198454;28;20295;-56
2023/12/16 04:05:58;;;;;;;;;;;;;;;;;;4170806;28;20443;-57
2023/12/16 04:07:59;;;;;;;;;;;;;;;;;;4166665;28;19925;-56
2023/12/16 04:10:02;;;;;;;;;;;;;;;;;;4198659;28;19951;-56
2023/12/16 04:12:03;;;;;;;;;;;;;;;;;;4198275;28;19925;-56
2023/12/16 04:14:05;;;;;;;;;;;;;;;;;;4187434;28;19931;-57
2023/12/16 04:16:06;;;;;;;;;;;;;;;;;;4181625;28;20372;-57
2023/12/16 04:18:08;;;;;;;;;;;;;;;;;;4181779;28;20392;-57
2023/12/16 04:20:10;;;;;;;;;;;;;;;;;;4182280;28;20348;-54
2023/12/16 04:22:11;;;;;;;;;;;;;;;;;;4181236;28;19935;-56
2023/12/16 04:24:14;;;;;;;;;;;;;;;;;;4181945;28;20023;-57
2023/12/16 04:26:15;;;;;;;;;;;;;;;;;;4181928;28;20291;-57
2023/12/16 04:28:17;;;;;;;;;;;;;;;;;;4147494;28;19933;-56
2023/12/16 04:30:21;;;;;;;;;;;;;;;;;;4181720;28;20036;-57
2023/12/16 04:32:23;;;;;;;;;;;;;;;;;;4163757;28;19937;-56
2023/12/16 04:34:28;;;;;;;;;;;;;;;;;;4163867;28;20025;-56
2023/12/16 04:36:30;;;;;;;;;;;;;;;;;;4181745;28;19925;-57
2023/12/16 04:38:31;;;;;;;;;;;;;;;;;;4163866;28;19925;-56
2023/12/16 04:40:33;;;;;;;;;;;;;;;;;;4163897;28;19981;-55
2023/12/16 04:42:35;;;;;;;;;;;;;;;;;;4181600;28;19975;-57
2023/12/16 04:44:37;;;;;;;;;;;;;;;;;;4181339;28;19929;-55
2023/12/16 04:46:39;;;;;;;;;;;;;;;;;;4181365;28;20077;-56
2023/12/16 04:48:40;;;;;;;;;;;;;;;;;;4163559;28;19969;-56
2023/12/16 04:50:45;;;;;;;;;;;;;;;;;;4181046;28;19931;-56
2023/12/16 04:52:47;;;;;;;;;;;;;;;;;;4181435;28;19925;-56
2023/12/16 04:54:50;;;;;;;;;;;;;;;;;;4181259;28;19925;-56
2023/12/16 04:56:52;;;;;;;;;;;;;;;;;;4181189;28;20470;-54
2023/12/16 04:58:53;;;;;;;;;;;;;;;;;;4163444;28;19984;-56
2023/12/16 05:00:56;;;;;;;;;;;;;;;;;;4177926;28;20020;-56
2023/12/16 05:02:59;;;;;;;;;;;;;;;;;;4164415;28;20296;-57
2023/12/16 05:05:00;;;;;;;;;;;;;;;;;;4163829;28;20382;-57
2023/12/16 05:07:02;;;;;;;;;;;;;;;;;;4164388;28;19933;-56
2023/12/16 05:09:12;;;;;;;;;;;;;;;;;;4183310;28;19928;-56
2023/12/16 05:11:13;;;;;;;;;;;;;;;;;;4181389;28;20015;-56
2023/12/16 05:13:15;;;;;;;;;;;;;;;;;;4181331;28;20016;-56
2023/12/16 05:15:16;;;;;;;;;;;;;;;;;;4181138;28;20019;-56
2023/12/16 05:17:19;;;;;;;;;;;;;;;;;;4186111;28;20195;-57
2023/12/16 05:19:21;;;;;;;;;;;;;;;;;;4201020;28;20364;-56
2023/12/16 05:21:23;;;;;;;;;;;;;;;;;;4200884;28;19929;-57
2023/12/16 05:23:24;;;;;;;;;;;;;;;;;;4183224;28;19925;-56
2023/12/16 05:25:25;;;;;;;;;;;;;;;;;;4200904;28;20496;-57
2023/12/16 05:27:28;;;;;;;;;;;;;;;;;;4200924;28;19978;-56
2023/12/16 05:29:32;;;;;;;;;;;;;;;;;;4200915;28;20015;-57
2023/12/16 05:31:33;;;;;;;;;;;;;;;;;;4196780;28;20293;-53
2023/12/16 05:33:37;;;;;;;;;;;;;;;;;;4184172;28;19948;-55
2023/12/16 05:35:39;;;;;;;;;;;;;;;;;;4184176;28;19924;-55
2023/12/16 05:37:41;;;;;;;;;;;;;;;;;;4184475;28;19925;-54
2023/12/16 05:39:42;;;;;;;;;;;;;;;;;;4182957;28;19929;-54
2023/12/16 05:41:45;;;;;;;;;;;;;;;;;;4177619;28;20277;-54
2023/12/16 05:43:46;;;;;;;;;;;;;;;;;;4182232;28;19983;-54
2023/12/16 05:45:47;;;;;;;;;;;;;;;;;;4179414;28;19925;-53
2023/12/16 05:47:49;;;;;;;;;;;;;;;;;;4149686;28;19926;-54
2023/12/16 05:49:51;;;;;;;;;;;;;;;;;;4184144;28;20287;-54
2023/12/16 05:51:52;;;;;;;;;;;;;;;;;;4196407;28;19934;-54
2023/12/16 05:53:54;;;;;;;;;;;;;;;;;;4166396;28;19932;-53
2023/12/16 05:55:55;;;;;;;;;;;;;;;;;;4183769;28;19925;-53
2023/12/16 05:57:57;;;;;;;;;;;;;;;;;;4156526;28;19992;-53
2023/12/16 05:59:59;;;;;;;;;;;;;;;;;;4168567;28;20388;-53
2023/12/16 06:02:01;;;;;;;;;;;;;;;;;;4178709;28;20019;-52
2023/12/16 06:04:02;;;;;;;;;;;;;;;;;;4165942;28;20383;-54
2023/12/16 06:06:04;;;;;;;;;;;;;;;;;;4183495;28;20410;-53
2023/12/16 06:08:05;;;;;;;;;;;;;;;;;;4184842;28;19971;-55
2023/12/16 06:10:07;;;;;;;;;;;;;;;;;;4199906;28;19928;-54
2023/12/16 06:12:08;;;;;;;;;;;;;;;;;;4182429;28;19932;-54
2023/12/16 06:14:10;;;;;;;;;;;;;;;;;;4190914;28;19984;-53
2023/12/16 06:16:11;;;;;;;;;;;;;;;;;;4183420;28;19986;-53
2023/12/16 06:18:19;;;;;;;;;;;;;;;;;;4165733;28;19925;-53
2023/12/16 06:20:20;;;;;;;;;;;;;;;;;;4185249;28;19929;-54
2023/12/16 06:22:22;;;;;;;;;;;;;;;;;;4199889;28;19975;-53
2023/12/16 06:24:23;;;;;;;;;;;;;;;;;;4199968;28;20022;-52
2023/12/16 06:26:25;;;;;;;;;;;;;;;;;;4199785;28;19925;-54
2023/12/16 06:28:27;;;;;;;;;;;;;;;;;;4180449;28;20019;-54
2023/12/16 06:30:29;;;;;;;;;;;;;;;;;;4163578;28;19926;-53
2023/12/16 06:32:31;;;;;;;;;;;;;;;;;;4181864;28;19932;-54
2023/12/16 06:34:33;;;;;;;;;;;;;;;;;;4182401;28;20337;-67
2023/12/16 06:36:34;;;;;;;;;;;;;;;;;;4182922;28;20295;-77
2023/12/16 06:38:36;;;;;;;;;;;;;;;;;;4165413;28;19925;-78
2023/12/16 06:40:40;;;;;;;;;;;;;;;;;;4183307;28;19925;-80
2023/12/16 06:42:42;;;;;;;;;;;;;;;;;;4165824;28;20188;-67
2023/12/16 06:44:43;;;;;;;;;;;;;;;;;;4183175;28;19933;-66
2023/12/16 06:46:45;;;;;;;;;;;;;;;;;;4183689;28;19932;-65
2023/12/16 06:48:46;;;;;;;;;;;;;;;;;;4183016;28;20299;-67
2023/12/16 06:50:49;;;;;;;;;;;;;;;;;;4183044;28;19924;-67
2023/12/16 06:52:50;;;;;;;;;;;;;;;;;;4179703;28;19935;-66
2023/12/16 06:54:52;;;;;;;;;;;;;;;;;;4181260;28;19931;-67
2023/12/16 06:56:53;;;;;;;;;;;;;;;;;;4182884;28;19928;-67
2023/12/16 06:58:55;;;;;;;;;;;;;;;;;;4178165;28;20012;-65
2023/12/16 07:00:56;;;;;;;;;;;;;;;;;;4165340;28;19925;-66
2023/12/16 07:02:58;;;;;;;;;;;;;;;;;;4181269;28;19925;-66
2023/12/16 07:04:59;;;;;;;;;;;;;;;;;;4182968;28;19925;-66
2023/12/16 07:07:02;;;;;;;;;;;;;;;;;;4182937;28;19924;-65
2023/12/16 07:09:04;;;;;;;;;;;;;;;;;;4164744;28;19937;-65
2023/12/16 07:11:06;;;;;;;;;;;;;;;;;;4176477;28;19924;-66
2023/12/16 07:13:07;;;;;;;;;;;;;;;;;;4182733;28;19925;-65
2023/12/16 07:15:10;;;;;;;;;;;;;;;;;;4164982;28;19925;-65
2023/12/16 07:17:12;;;;;;;;;;;;;;;;;;4164908;28;19925;-65
2023/12/16 07:19:14;;;;;;;;;;;;;;;;;;4179009;28;19933;-66
2023/12/16 07:21:16;;;;;;;;;;;;;;;;;;4164789;28;20008;-66
2023/12/16 07:23:17;;;;;;;;;;;;;;;;;;4182584;28;19974;-66
2023/12/16 07:25:19;;;;;;;;;;;;;;;;;;4182817;28;20020;-65
2023/12/16 07:27:22;;;;;;;;;;;;;;;;;;4148244;28;19925;-66
2023/12/16 07:29:23;;;;;;;;;;;;;;;;;;4182559;28;19929;-66
2023/12/16 07:31:25;;;;;;;;;;;;;;;;;;4180406;28;19925;-66
2023/12/16 07:33:26;;;;;;;;;;;;;;;;;;4164867;28;19925;-66
2023/12/16 07:35:29;;;;;;;;;;;;;;;;;;4182753;28;19925;-66
2023/12/16 07:37:30;;;;;;;;;;;;;;;;;;4164744;28;19936;-66
2023/12/16 07:39:32;;;;;;;;;;;;;;;;;;4164928;28;19925;-66
2023/12/16 07:41:34;;;;;;;;;;;;;;;;;;4178211;28;20319;-66
2023/12/16 07:43:35;;;;;;;;;;;;;;;;;;4182363;28;20396;-66
2023/12/16 07:45:37;;;;;;;;;;;;;;;;;;4182640;28;19932;-65
2023/12/16 07:47:39;;;;;;;;;;;;;;;;;;4182552;28;19924;-66
2023/12/16 07:49:40;;;;;;;;;;;;;;;;;;4179105;28;19929;-68
2023/12/16 07:51:42;;;;;;;;;;;;;;;;;;4165113;28;20507;-67
2023/12/16 07:53:46;;;;;;;;;;;;;;;;;;4181084;28;19929;-66
2023/12/16 07:55:48;;;;;;;;;;;;;;;;;;4197870;28;19932;-66
2023/12/16 07:57:50;;;;;;;;;;;;;;;;;;4198662;28;19924;-66
2023/12/16 07:59:51;;;;;;;;;;;;;;;;;;4185987;28;19931;-66
2023/12/16 08:01:56;;;;;;;;;;;;;;;;;;4162421;28;19925;-66
2023/12/16 08:03:57;;;;;;;;;;;;;;;;;;4182023;28;19925;-65
2023/12/16 08:05:59;;;;;;;;;;;;;;;;;;4163959;28;20011;-66
2023/12/16 08:08:00;;;;;;;;;;;;;;;;;;4180749;28;19929;-66
2023/12/16 08:10:02;;;;;;;;;;;;;;;;;;4165570;28;20315;-66
2023/12/16 08:12:20;;;;;;;;;;;;;;;;;;4165322;28;20277;-65
2023/12/16 08:14:21;;;;;;;;;;;;;;;;;;4147704;28;20020;-66
2023/12/16 08:16:23;;;;;;;;;;;;;;;;;;4165485;28;19925;-66
2023/12/16 08:18:25;;;;;;;;;;;;;;;;;;4164284;28;19929;-65
2023/12/16 08:20:26;;;;;;;;;;;;;;;;;;4147635;28;19925;-66
2023/12/16 08:22:30;;;;;;;;;;;;;;;;;;4147973;28;19935;-66
2023/12/16 08:24:32;;;;;;;;;;;;;;;;;;4155907;28;19979;-66
2023/12/16 08:26:33;;;;;;;;;;;;;;;;;;4163897;28;19925;-66
2023/12/16 08:28:35;;;;;;;;;;;;;;;;;;4180449;28;20292;-66
2023/12/16 08:30:39;;;;;;;;;;;;;;;;;;4182039;28;19960;-66
2023/12/16 08:32:40;;;;;;;;;;;;;;;;;;4181724;28;19925;-67
2023/12/16 08:34:42;;;;;;;;;;;;;;;;;;4181505;28;19988;-66
2023/12/16 08:36:44;;;;;;;;;;;;;;;;;;4163761;28;19925;-65
2023/12/16 08:38:45;;;;;;;;;;;;;;;;;;4163476;28;19925;-68
2023/12/16 08:40:47;;;;;;;;;;;;;;;;;;4175640;28;19928;-66
2023/12/16 08:42:48;;;;;;;;;;;;;;;;;;4180407;28;20330;-66
2023/12/16 08:44:50;;;;;;;;;;;;;;;;;;4146700;28;19965;-66
2023/12/16 08:46:51;;;;;;;;;;;;;;;;;;4181006;28;19925;-66
2023/12/16 08:48:53;;;;;;;;;;;;;;;;;;4162900;28;19932;-66
2023/12/16 08:50:58;;;;;;;;;;;;;;;;;;4163924;28;19929;-65
2023/12/16 08:52:59;;;;;;;;;;;;;;;;;;4183526;28;20353;-67
2023/12/16 08:55:02;;;;;;;;;;;;;;;;;;4182004;28;19929;-66
2023/12/16 08:57:04;;;;;;;;;;;;;;;;;;4171246;28;20019;-66
2023/12/16 08:59:05;;;;;;;;;;;;;;;;;;4145883;28;20000;-66
2023/12/16 09:01:08;;;;;;;;;;;;;;;;;;4178449;28;19967;-66
2023/12/16 09:03:09;;;;;;;;;;;;;;;;;;4173600;28;19925;-65
2023/12/16 09:05:12;;;;;;;;;;;;;;;;;;4172900;28;19925;-67
2023/12/16 09:07:13;;;;;;;;;;;;;;;;;;4164104;28;19936;-65
2023/12/16 09:09:15;;;;;;;;;;;;;;;;;;4186679;28;19951;-66
2023/12/16 09:11:16;;;;;;;;;;;;;;;;;;4197567;28;20364;-65
2023/12/16 09:13:18;;;;;;;;;;;;;;;;;;4179866;28;19925;-66
2023/12/16 09:15:19;;;;;;;;;;;;;;;;;;4170687;28;20385;-66
2023/12/16 09:17:21;;;;;;;;;;;;;;;;;;4177017;28;20015;-66
2023/12/16 09:19:22;;;;;;;;;;;;;;;;;;4147108;28;20312;-66
2023/12/16 09:21:24;;;;;;;;;;;;;;;;;;4174523;28;19940;-66
2023/12/16 09:23:25;;;;;;;;;;;;;;;;;;4164250;28;19929;-66
2023/12/16 09:25:27;;;;;;;;;;;;;;;;;;4164755;28;19926;-66
2023/12/16 09:27:28;;;;;;;;;;;;;;;;;;4164777;28;19925;-66
2023/12/16 09:29:30;;;;;;;;;;;;;;;;;;4164617;28;19929;-67
2023/12/16 09:31:31;;;;;;;;;;;;;;;;;;4147205;28;20456;-67
2023/12/16 09:33:33;;;;;;;;;;;;;;;;;;4146949;28;19999;-66
2023/12/16 09:35:35;;;;;;;;;;;;;;;;;;4164689;28;19929;-66
2023/12/16 09:37:36;;;;;;;;;;;;;;;;;;4167560;28;19970;-68
2023/12/16 09:39:38;;;;;;;;;;;;;;;;;;4163289;28;20016;-67
2023/12/16 09:41:44;;;;;;;;;;;;;;;;;;4180924;28;19925;-65
2023/12/16 09:43:48;;;;;;;;;;;;;;;;;;4178494;28;20292;-65
2023/12/16 09:45:49;;;;;;;;;;;;;;;;;;4181082;28;19925;-65
2023/12/16 09:47:51;;;;;;;;;;;;;;;;;;4156369;28;20344;-66
2023/12/16 09:49:52;;;;;;;;;;;;;;;;;;4162466;28;19933;-66
2023/12/16 09:51:54;;;;;;;;;;;;;;;;;;4181503;28;19924;-66
2023/12/16 09:53:58;;;;;;;;;;;;;;;;;;4196307;28;19925;-65
2023/12/16 09:55:59;;;;;;;;;;;;;;;;;;4196564;28;19962;-66
2023/12/16 09:58:01;;;;;;;;;;;;;;;;;;4197888;28;19929;-66
2023/12/16 10:00:02;;;;;;;;;;;;;;;;;;4163163;28;19933;-66
2023/12/16 10:02:04;;;;;;;;;;;;;;;;;;4180296;28;19972;-66
2023/12/16 10:04:06;;;;;;;;;;;;;;;;;;4177869;28;20343;-67
2023/12/16 10:08:36;;;;;;;;;;;;;;;;;;4132565;28;20349;-66
2023/12/16 10:10:38;;;;;;;;;;;;;;;;;;4148946;28;19926;-66
2023/12/16 10:12:42;;;;;;;;;;;;;;;;;;4132483;28;19960;-66
2023/12/16 10:14:44;;;;;;;;;;;;;;;;;;4131821;28;20285;-66
2023/12/16 10:16:48;;;;;;;;;;;;;;;;;;4148733;28;19977;-66
2023/12/16 10:18:49;;;;;;;;;;;;;;;;;;4148796;28;19926;-67
2023/12/16 10:20:55;;;;;;;;;;;;;;;;;;4116448;28;19977;-66
2023/12/16 10:22:57;;;;;;;;;;;;;;;;;;4132712;28;19972;-67
2023/12/16 10:24:59;;;;;;;;;;;;;;;;;;4113435;28;20008;-66
2023/12/16 10:27:01;;;;;;;;;;;;;;;;;;4147362;28;19929;-67
2023/12/16 10:29:05;;;;;;;;;;;;;;;;;;4146022;28;20381;-66
2023/12/16 10:31:06;;;;;;;;;;;;;;;;;;4132392;28;19952;-66
2023/12/16 10:33:08;;;;;;;;;;;;;;;;;;4132647;28;19968;-67
2023/12/16 10:35:11;;;;;;;;;;;;;;;;;;4148745;28;19960;-67
2023/12/16 10:37:13;;;;;;;;;;;;;;;;;;4148787;28;19930;-66
2023/12/16 10:39:15;;;;;;;;;;;;;;;;;;4132535;28;19926;-66
2023/12/16 10:41:18;;;;;;;;;;;;;;;;;;4132455;28;20006;-66
2023/12/16 10:43:19;;;;;;;;;;;;;;;;;;4132138;28;19926;-67
2023/12/16 10:45:21;;;;;;;;;;;;;;;;;;4154138;28;20040;-66
2023/12/16 10:47:22;;;;;;;;;;;;;;;;;;4155523;28;19929;-66
2023/12/16 10:49:24;;;;;;;;;;;;;;;;;;4183484;28;20281;-66
2023/12/16 10:51:25;;;;;;;;;;;;;;;;;;4183289;28;19928;-67
2023/12/16 10:53:27;;;;;;;;;;;;;;;;;;4182376;28;19976;-66
2023/12/16 10:55:31;;;;;;;;;;;;;;;;;;4180347;28;19933;-69
2023/12/16 10:57:35;;;;;;;;;;;;;;;;;;4156585;28;20065;-66
2023/12/16 10:59:37;;;;;;;;;;;;;;;;;;4166704;28;20393;-66
2023/12/16 11:01:39;;;;;;;;;;;;;;;;;;4175494;28;19971;-67
2023/12/16 11:03:40;;;;;;;;;;;;;;;;;;4181551;28;19924;-67
2023/12/16 11:08:09;;;;;;;;;;;;;;;;;;4128756;28;20316;-66
2023/12/16 11:10:13;;;;;;;;;;;;;;;;;;4139081;28;19925;-67
2023/12/16 11:12:17;;;;;;;;;;;;;;;;;;4135420;28;19930;-66
2023/12/16 11:14:19;;;;;;;;;;;;;;;;;;4137121;28;19926;-66
2023/12/16 11:16:21;;;;;;;;;;;;;;;;;;4117072;28;19926;-67
2023/12/16 11:18:22;;;;;;;;;;;;;;;;;;4131965;28;19925;-68
2023/12/16 11:20:23;;;;;;;;;;;;;;;;;;4130568;28;19937;-66
2023/12/16 11:22:25;;;;;;;;;;;;;;;;;;4119065;28;19926;-81
2023/12/16 11:24:27;;;;;;;;;;;;;;;;;;4131369;28;19930;-81
2023/12/16 11:26:31;;;;;;;;;;;;;;;;;;4131323;28;20388;-82
2023/12/16 11:28:33;;;;;;;;;;;;;;;;;;4129383;28;20024;-82
2023/12/16 11:30:34;;;;;;;;;;;;;;;;;;4130038;28;20443;-80
2023/12/16 11:32:36;;;;;;;;;;;;;;;;;;4131175;28;19932;-66
2023/12/16 11:34:38;;;;;;;;;;;;;;;;;;4146130;28;19929;-67
2023/12/16 11:36:39;;;;;;;;;;;;;;;;;;4114853;28;19961;-66
2023/12/16 11:38:44;;;;;;;;;;;;;;;;;;4126734;28;20042;-68
2023/12/16 11:40:51;;;;;;;;;;;;;;;;;;4138011;28;19932;-66
2023/12/16 11:42:54;;;;;;;;;;;;;;;;;;4128528;28;19925;-67
2023/12/16 11:44:56;;;;;;;;;;;;;;;;;;4147211;28;19932;-67
2023/12/16 11:46:58;;;;;;;;;;;;;;;;;;4171900;28;19929;-67
2023/12/16 11:48:59;;;;;;;;;;;;;;;;;;4154101;28;19932;-67
2023/12/16 11:51:01;;;;;;;;;;;;;;;;;;4166474;28;20028;-66
2023/12/16 11:53:02;;;;;;;;;;;;;;;;;;4177389;28;20376;-68
2023/12/16 11:55:04;;;;;;;;;;;;;;;;;;4176221;28;19967;-67
2023/12/16 11:57:05;;;;;;;;;;;;;;;;;;4180851;28;19959;-67
2023/12/16 11:59:08;;;;;;;;;;;;;;;;;;4161457;28;19936;-67
2023/12/16 12:01:10;;;;;;;;;;;;;;;;;;4168956;28;20011;-67
2023/12/16 12:03:11;;;;;;;;;;;;;;;;;;4170710;28;19979;-67
2023/12/16 12:05:14;;;;;;;;;;;;;;;;;;4178276;28;20415;-67
2023/12/16 12:07:15;;;;;;;;;;;;;;;;;;4162512;28;20695;-66
2023/12/16 12:09:17;;;;;;;;;;;;;;;;;;4175665;28;20300;-67
2023/12/16 12:11:20;;;;;;;;;;;;;;;;;;4174051;28;19968;-67
2023/12/16 12:13:21;;;;;;;;;;;;;;;;;;4165106;28;19965;-64
2023/12/16 12:15:23;;;;;;;;;;;;;;;;;;4178004;28;19932;-64
2023/12/16 12:17:26;;;;;;;;;;;;;;;;;;4174263;28;20031;-65
2023/12/16 12:19:27;;;;;;;;;;;;;;;;;;4171904;28;19929;-64
2023/12/16 12:21:29;;;;;;;;;;;;;;;;;;4161773;28;19932;-64
2023/12/16 12:23:32;;;;;;;;;;;;;;;;;;4176348;28;19931;-65
2023/12/16 12:25:34;;;;;;;;;;;;;;;;;;4181100;28;19932;-64
2023/12/16 12:27:36;;;;;;;;;;;;;;;;;;4176865;28;20169;-64
2023/12/16 12:29:38;;;;;;;;;;;;;;;;;;4163998;28;20014;-64
2023/12/16 12:31:40;;;;;;;;;;;;;;;;;;4170636;28;19925;-63
2023/12/16 12:33:42;;;;;;;;;;;;;;;;;;4181261;28;19925;-65
2023/12/16 12:35:43;;;;;;;;;;;;;;;;;;4181144;28;20399;-64
2023/12/16 12:37:45;;;;;;;;;;;;;;;;;;4181253;28;19974;-65
2023/12/16 12:39:47;;;;;;;;;;;;;;;;;;4159154;28;20503;-65
2023/12/16 12:41:48;;;;;;;;;;;;;;;;;;4181344;28;19929;-64
2023/12/16 12:43:50;;;;;;;;;;;;;;;;;;4181189;28;19948;-63
2023/12/16 12:45:51;;;;;;;;;;;;;;;;;;4181401;28;19925;-64
2023/12/16 12:47:53;;;;;;;;;;;;;;;;;;4181113;28;20277;-64
2023/12/16 12:49:55;;;;;;;;;;;;;;;;;;4163680;28;19925;-64
2023/12/16 12:51:57;;;;;;;;;;;;;;;;;;4183293;28;19928;-64
2023/12/16 12:53:58;;;;;;;;;;;;;;;;;;4197860;28;19928;-63
2023/12/16 12:56:02;;;;;;;;;;;;;;;;;;4197619;28;20296;-64
2023/12/16 12:58:04;;;;;;;;;;;;;;;;;;4196712;28;19935;-63
2023/12/16 13:00:11;;;;;;;;;;;;;;;;;;4176678;28;19948;-65
2023/12/16 13:02:13;;;;;;;;;;;;;;;;;;4177802;28;19940;-64
2023/12/16 13:04:14;;;;;;;;;;;;;;;;;;4146997;28;19925;-63
2023/12/16 13:06:16;;;;;;;;;;;;;;;;;;4148227;28;19929;-63
2023/12/16 13:08:17;;;;;;;;;;;;;;;;;;4154426;28;19929;-63
2023/12/16 13:10:19;;;;;;;;;;;;;;;;;;4181260;28;20034;-63
2023/12/16 13:12:22;;;;;;;;;;;;;;;;;;4180891;28;19936;-63
2023/12/16 13:14:23;;;;;;;;;;;;;;;;;;4180913;28;19925;-64
2023/12/16 13:16:29;;;;;;;;;;;;;;;;;;4177049;28;19929;-64
2023/12/16 13:18:31;;;;;;;;;;;;;;;;;;4164276;28;19979;-64
2023/12/16 13:20:33;;;;;;;;;;;;;;;;;;4164329;28;19929;-63
2023/12/16 13:22:37;;;;;;;;;;;;;;;;;;4163254;28;19925;-65
2023/12/16 13:24:38;;;;;;;;;;;;;;;;;;4164038;28;19925;-63
2023/12/16 13:26:40;;;;;;;;;;;;;;;;;;4164177;28;19925;-63
2023/12/16 13:28:41;;;;;;;;;;;;;;;;;;4164294;28;19925;-65
2023/12/16 13:30:43;;;;;;;;;;;;;;;;;;4164496;28;19925;-63
2023/12/16 13:32:44;;;;;;;;;;;;;;;;;;4164506;28;19929;-63
2023/12/16 13:34:46;;;;;;;;;;;;;;;;;;4164085;28;19932;-63
2023/12/16 13:36:48;;;;;;;;;;;;;;;;;;4164208;28;19925;-64
2023/12/16 13:38:52;;;;;;;;;;;;;;;;;;4165610;28;19925;-64
2023/12/16 13:40:54;;;;;;;;;;;;;;;;;;4160331;28;19926;-64
2023/12/16 13:42:55;;;;;;;;;;;;;;;;;;4164032;28;20292;-64
2023/12/16 13:44:57;;;;;;;;;;;;;;;;;;4166159;28;20387;-64
2023/12/16 13:46:58;;;;;;;;;;;;;;;;;;4167356;28;19925;-64
2023/12/16 13:49:00;;;;;;;;;;;;;;;;;;4167636;28;20054;-64
2023/12/16 13:51:05;;;;;;;;;;;;;;;;;;4167497;28;19979;-68
2023/12/16 13:53:06;;;;;;;;;;;;;;;;;;4164543;28;20024;-68
2023/12/16 13:55:08;;;;;;;;;;;;;;;;;;4165955;28;19930;-68
2023/12/16 13:57:10;;;;;;;;;;;;;;;;;;4161465;28;19976;-69
2023/12/16 13:59:11;;;;;;;;;;;;;;;;;;4165731;28;19971;-68